Time;durP1;ratioP1;P1;durP2;ratioP2;P2;SDS_P1;SDS_P2;PMS_P1;PMS_P2;Temp;Humidity;BMP_temperature;BMP_pressure;BME280_temperature;BME280_humidity;BME280_pressure;Samples;Min_cycle;Max_cycle;Signal;HPM_P1;HPM_P2
2022/06/12 00:00:45;;;;;;;5.73;5.43;;;;;;;14.08;100.00;97621.84;4854244;29;20214;-60
2022/06/12 00:03:15;;;;;;;6.27;5.80;;;;;;;14.09;100.00;97629.63;4854759;29;20246;-62
2022/06/12 00:05:46;;;;;;;6.43;5.93;;;;;;;14.06;100.00;97626.56;4848772;29;20954;-62
2022/06/12 00:08:15;;;;;;;6.97;6.47;;;;;;;14.06;100.00;97632.69;4852964;29;20691;-62
2022/06/12 00:10:45;;;;;;;6.57;5.97;;;;;;;14.04;100.00;97624.06;4795701;29;20858;-61
2022/06/12 00:13:16;;;;;;;11.60;6.47;;;;;;;14.12;100.00;97623.91;4847863;29;20414;-62
2022/06/12 00:15:44;;;;;;;6.20;5.57;;;;;;;14.03;100.00;97622.44;4853189;29;20224;-60
2022/06/12 00:18:13;;;;;;;7.23;6.53;;;;;;;13.91;100.00;97621.34;4859005;29;20757;-62
2022/06/12 00:20:41;;;;;;;7.87;5.80;;;;;;;14.06;100.00;97624.69;4852186;29;20568;-61
2022/06/12 00:23:13;;;;;;;8.77;6.27;;;;;;;13.85;100.00;97617.59;4854704;29;20601;-61
2022/06/12 00:25:43;;;;;;;6.67;6.07;;;;;;;13.71;100.00;97614.00;4822354;29;20312;-61
2022/06/12 00:28:16;;;;;;;5.60;5.07;;;;;;;13.64;100.00;97616.66;4820012;29;20349;-60
2022/06/12 00:31:12;;;;;;;5.33;4.93;;;;;;;13.61;100.00;97614.34;4841226;29;20551;-61
2022/06/12 00:33:41;;;;;;;7.33;5.87;;;;;;;13.51;100.00;97627.16;4849890;29;20321;-63
2022/06/12 00:36:09;;;;;;;11.43;6.40;;;;;;;13.65;100.00;97623.63;4853185;29;20309;-62
2022/06/12 00:38:40;;;;;;;8.53;6.20;;;;;;;13.66;100.00;97619.94;4850380;29;21066;-60
2022/06/12 00:41:16;;;;;;;7.13;6.53;;;;;;;13.44;100.00;97622.63;4826990;29;20252;-61
2022/06/12 00:43:45;;;;;;;6.87;6.27;;;;;;;13.32;100.00;97622.28;4835400;29;20715;-61
2022/06/12 00:46:38;;;;;;;6.80;6.20;;;;;;;13.30;100.00;97621.63;4849875;29;20238;-60
2022/06/12 00:49:12;;;;;;;7.03;6.50;;;;;;;13.29;100.00;97617.31;4851285;29;20221;-61
2022/06/12 00:51:41;;;;;;;6.77;6.33;;;;;;;13.66;100.00;97613.78;4849498;29;20394;-63
2022/06/12 00:54:12;;;;;;;7.00;6.40;;;;;;;13.56;100.00;97614.94;4850035;29;20302;-60
2022/06/12 00:56:47;;;;;;;6.50;6.10;;;;;;;13.35;100.00;97620.25;4778804;29;20559;-62
2022/06/12 00:59:18;;;;;;;6.90;6.50;;;;;;;13.55;100.00;97623.94;4850154;29;20704;-58
2022/06/12 01:01:49;;;;;;;7.47;6.57;;;;;;;13.42;100.00;97624.66;4849308;29;20229;-63
2022/06/12 01:07:06;;;;;;;6.97;6.33;;;;;;;13.29;100.00;97622.66;4847207;29;20682;-60
2022/06/12 01:09:40;;;;;;;6.70;6.20;;;;;;;13.33;100.00;97617.78;4846601;29;20926;-64
2022/06/12 01:12:12;;;;;;;6.73;6.33;;;;;;;13.31;100.00;97622.47;4802355;29;20660;-60
2022/06/12 01:14:43;;;;;;;7.03;6.53;;;;;;;13.34;100.00;97623.91;4846030;29;20682;-63
2022/06/12 01:17:12;;;;;;;6.53;6.03;;;;;;;13.34;100.00;97616.78;4848615;29;20722;-59
2022/06/12 01:19:43;;;;;;;7.20;6.70;;;;;;;13.34;100.00;97615.94;4852164;29;20594;-63
2022/06/12 01:22:48;;;;;;;6.67;6.10;;;;;;;13.39;100.00;97618.84;4853003;29;20238;-59
2022/06/12 01:25:32;;;;;;;6.23;5.83;;;;;;;13.30;100.00;97616.31;4846532;29;20320;-58
2022/06/12 01:28:34;;;;;;;7.47;5.97;;;;;;;13.25;100.00;97613.41;4801275;29;20739;-63
2022/06/12 01:31:07;;;;;;;6.93;6.33;;;;;;;13.15;100.00;97612.91;4829963;29;20739;-63
2022/06/12 01:33:42;;;;;;;6.20;5.80;;;;;;;13.08;100.00;97614.69;4850227;29;20707;-63
2022/06/12 01:36:14;;;;;;;6.13;5.70;;;;;;;13.02;100.00;97614.41;4846740;29;20237;-62
2022/06/12 01:38:46;;;;;;;5.67;5.27;;;;;;;12.93;100.00;97612.88;4845933;29;20505;-63
2022/06/12 01:41:24;;;;;;;6.47;6.00;;;;;;;12.89;100.00;97622.25;4853861;29;20234;-59
2022/06/12 01:44:00;;;;;;;6.63;6.00;;;;;;;12.92;100.00;97611.25;4799694;29;20352;-63
2022/06/12 01:46:40;;;;;;;7.27;6.77;;;;;;;12.85;100.00;97602.38;4845853;29;20429;-63
2022/06/12 01:49:23;;;;;;;7.00;6.50;;;;;;;12.93;100.00;97606.75;4848950;29;20309;-60
2022/06/12 01:51:56;;;;;;;6.90;6.30;;;;;;;12.88;100.00;97607.31;4849146;29;20237;-62
2022/06/12 01:54:28;;;;;;;7.37;6.70;;;;;;;13.19;100.00;97603.53;4848377;29;20349;-62
2022/06/12 01:57:01;;;;;;;8.43;7.03;;;;;;;13.10;100.00;97600.16;4848477;29;20703;-62
2022/06/12 01:59:38;;;;;;;6.97;6.43;;;;;;;12.84;100.00;97606.03;4797281;29;20751;-64
2022/06/12 02:02:12;;;;;;;6.73;6.13;;;;;;;12.72;100.00;97613.69;4851649;29;20249;-64
2022/06/12 02:04:44;;;;;;;8.00;7.40;;;;;;;12.76;100.00;97608.81;4849218;29;20457;-63
2022/06/12 02:07:17;;;;;;;7.13;6.53;;;;;;;12.61;100.00;97612.31;4850640;29;20277;-61
2022/06/12 02:09:51;;;;;;;8.50;7.50;;;;;;;12.59;100.00;97614.34;4848105;29;20241;-63
2022/06/12 02:15:14;;;;;;;7.73;7.03;;;;;;;12.62;100.00;97616.63;4799992;29;20724;-62
2022/06/12 02:17:48;;;;;;;7.40;6.80;;;;;;;12.47;100.00;97614.00;4848943;29;20368;-63
2022/06/12 02:20:19;;;;;;;7.33;6.40;;;;;;;12.49;100.00;97617.28;4852991;29;20903;-60
2022/06/12 02:22:49;;;;;;;8.17;7.03;;;;;;;12.35;100.00;97615.47;4852288;29;20301;-66
2022/06/12 02:25:21;;;;;;;9.77;6.80;;;;;;;12.29;100.00;97614.38;4851430;29;20297;-62
2022/06/12 02:27:52;;;;;;;7.10;6.60;;;;;;;12.20;100.00;97612.81;4852893;29;20296;-62
2022/06/12 02:30:25;;;;;;;8.43;7.63;;;;;;;12.22;100.00;97610.81;4803557;29;20312;-60
2022/06/12 02:32:57;;;;;;;7.43;6.83;;;;;;;12.27;100.00;97613.72;4850261;29;20530;-63
2022/06/12 02:35:29;;;;;;;7.77;7.17;;;;;;;12.26;100.00;97606.78;4850507;29;20635;-60
2022/06/12 02:38:01;;;;;;;7.67;7.07;;;;;;;12.34;100.00;97611.16;4854880;29;20279;-62
2022/06/12 02:40:32;;;;;;;7.43;6.70;;;;;;;12.22;100.00;97613.47;4850480;29;20320;-62
2022/06/12 02:43:04;;;;;;;6.70;6.20;;;;;;;12.10;100.00;97607.78;4854803;29;20297;-63
2022/06/12 02:45:37;;;;;;;6.80;6.30;;;;;;;12.07;100.00;97605.50;4802692;29;22605;-63
2022/06/12 02:48:05;;;;;;;7.40;6.73;;;;;;;11.98;100.00;97602.91;4849143;29;20421;-63
2022/06/12 02:50:39;;;;;;;6.60;6.13;;;;;;;11.96;100.00;97602.25;4849133;29;20431;-61
2022/06/12 02:53:16;;;;;;;6.70;6.13;;;;;;;11.90;100.00;97607.47;4852772;29;20344;-60
2022/06/12 02:55:51;;;;;;;6.10;5.80;;;;;;;11.81;100.00;97612.06;4849062;29;20806;-62
2022/06/12 02:58:21;;;;;;;7.23;6.63;;;;;;;11.77;100.00;97613.44;4850226;29;20305;-57
2022/06/12 03:00:54;;;;;;;7.10;6.60;;;;;;;11.74;100.00;97617.25;4801679;29;20370;-60
2022/06/12 03:03:27;;;;;;;8.07;7.33;;;;;;;11.72;100.00;97619.28;4845316;29;20262;-60
2022/06/12 03:05:58;;;;;;;7.43;6.83;;;;;;;11.70;100.00;97622.09;4853623;29;20235;-63
2022/06/12 03:08:29;;;;;;;8.67;7.83;;;;;;;11.66;100.00;97618.16;4852310;29;20639;-61
2022/06/12 03:11:00;;;;;;;7.43;6.80;;;;;;;11.68;100.00;97618.78;4854851;29;20274;-63
2022/06/12 03:13:29;;;;;;;8.90;6.53;;;;;;;11.57;100.00;97619.22;4850769;29;20477;-63
2022/06/12 03:16:01;;;;;;;11.37;7.60;;;;;;;11.56;100.00;97626.38;4810330;29;20304;-63
2022/06/12 03:18:33;;;;;;;8.57;7.77;;;;;;;11.52;100.00;97619.75;4849576;29;20541;-63
2022/06/12 03:21:10;;;;;;;7.37;6.80;;;;;;;11.53;100.00;97625.91;4856067;29;20228;-63
2022/06/12 03:23:52;;;;;;;7.40;6.90;;;;;;;11.64;100.00;97627.31;4850406;29;20234;-60
2022/06/12 03:26:27;;;;;;;7.43;6.77;;;;;;;11.60;100.00;97628.69;4853201;29;20261;-62
2022/06/12 03:29:02;;;;;;;8.57;6.93;;;;;;;11.57;100.00;97630.69;4855090;29;20273;-63
2022/06/12 03:31:36;;;;;;;7.83;7.13;;;;;;;11.60;100.00;97631.34;4803291;29;20327;-62
2022/06/12 03:34:10;;;;;;;6.93;6.43;;;;;;;11.58;100.00;97634.16;4851976;29;20224;-64
2022/06/12 03:36:41;;;;;;;7.17;6.57;;;;;;;11.58;100.00;97635.00;4854487;29;20487;-60
2022/06/12 03:39:13;;;;;;;7.17;6.53;;;;;;;11.53;100.00;97641.84;4852523;29;20569;-61
2022/06/12 03:41:51;;;;;;;6.87;6.20;;;;;;;11.49;100.00;97635.25;4852246;29;20431;-62
2022/06/12 03:44:23;;;;;;;8.50;7.00;;;;;;;11.47;100.00;97642.56;4847501;29;20218;-61
2022/06/12 03:46:55;;;;;;;8.10;7.40;;;;;;;11.49;100.00;97637.88;4806883;29;20855;-63
2022/06/12 03:49:27;;;;;;;7.27;6.77;;;;;;;11.56;100.00;97634.34;4847247;29;20219;-62
2022/06/12 03:52:01;;;;;;;7.60;7.00;;;;;;;11.60;100.00;97632.16;4851701;29;20222;-63
2022/06/12 03:54:36;;;;;;;8.17;7.57;;;;;;;11.63;100.00;97630.97;4852494;29;20391;-62
2022/06/12 03:59:57;;;;;;;7.83;7.33;;;;;;;11.75;100.00;97637.50;4854313;29;20765;-62
2022/06/12 04:02:27;;;;;;;7.63;6.97;;;;;;;11.88;100.00;97639.53;4804505;29;20292;-59
2022/06/12 04:04:56;;;;;;;7.50;6.70;;;;;;;11.90;100.00;97634.03;4849377;29;20355;-63
2022/06/12 04:07:26;;;;;;;7.97;7.37;;;;;;;12.00;100.00;97638.09;4846823;29;20879;-60
2022/06/12 04:09:57;;;;;;;7.10;6.50;;;;;;;12.09;100.00;97633.53;4848359;29;20270;-60
2022/06/12 04:12:28;;;;;;;7.57;6.97;;;;;;;12.24;100.00;97632.69;4848269;29;20269;-60
2022/06/12 04:15:01;;;;;;;8.90;8.00;;;;;;;12.35;100.00;97629.59;4850740;29;20304;-60
2022/06/12 04:17:31;;;;;;;7.30;6.70;;;;;;;12.49;100.00;97635.06;4799308;29;20356;-62
2022/06/12 04:20:04;;;;;;;7.87;7.17;;;;;;;12.62;100.00;97635.22;4849411;29;20245;-63
2022/06/12 04:22:42;;;;;;;7.70;7.10;;;;;;;12.73;100.00;97629.47;4847109;29;20859;-61
2022/06/12 04:25:24;;;;;;;8.87;6.70;;;;;;;12.90;100.00;97623.91;4854438;29;20209;-60
2022/06/12 04:27:52;;;;;;;6.70;6.30;;;;;;;13.01;100.00;97623.41;4825743;29;20363;-62
2022/06/12 04:30:25;;;;;;;6.23;5.63;;;;;;;13.28;100.00;97623.66;4830226;29;20561;-61
2022/06/12 04:33:10;;;;;;;6.53;6.00;;;;;;;13.36;100.00;97624.53;4809250;29;20241;-59
2022/06/12 04:35:43;;;;;;;6.90;6.20;;;;;;;13.62;100.00;97620.50;4853494;29;21136;-57
2022/06/12 04:38:11;;;;;;;7.27;6.57;;;;;;;13.71;100.00;97619.34;4854507;29;20664;-58
2022/06/12 04:40:40;;;;;;;6.43;5.13;;;;;;;13.98;100.00;97623.00;4851701;29;20293;-61
2022/06/12 04:43:08;;;;;;;6.13;5.63;;;;;;;14.13;100.00;97614.91;4851759;29;20325;-56
2022/06/12 04:45:38;;;;;;;6.47;5.87;;;;;;;14.32;100.00;97621.34;4830852;29;20752;-59
2022/06/12 04:48:10;;;;;;;5.80;5.30;;;;;;;14.52;100.00;97622.47;4785275;29;20337;-61
2022/06/12 04:50:39;;;;;;;5.90;5.50;;;;;;;14.61;100.00;97626.63;4855210;29;20404;-56
2022/06/12 04:53:07;;;;;;;7.77;5.07;;;;;;;14.69;100.00;97629.13;4835929;29;20425;-56
2022/06/12 04:55:35;;;;;;;6.17;5.60;;;;;;;14.90;100.00;97630.03;4851115;29;20755;-57
2022/06/12 04:58:05;;;;;;;5.07;4.67;;;;;;;15.17;100.00;97625.59;4854920;29;20252;-60
2022/06/12 05:00:34;;;;;;;6.90;6.23;;;;;;;15.16;100.00;97626.63;4849024;29;20249;-59
2022/06/12 05:03:03;;;;;;;6.97;6.47;;;;;;;15.32;100.00;97627.25;4836323;29;20528;-62
2022/06/12 05:05:33;;;;;;;9.07;6.33;;;;;;;15.25;100.00;97631.78;4811910;29;20220;-59
2022/06/12 05:08:01;;;;;;;6.83;6.23;;;;;;;15.36;100.00;97635.69;4849320;29;20237;-61
2022/06/12 05:10:29;;;;;;;5.63;5.23;;;;;;;15.57;100.00;97626.66;4851042;29;20221;-62
2022/06/12 05:12:57;;;;;;;4.73;4.43;;;;;;;15.57;100.00;97630.16;4855578;29;20261;-61
2022/06/12 05:15:26;;;;;;;5.97;5.07;;;;;;;15.63;100.00;97637.34;4857070;29;20735;-62
2022/06/12 05:17:54;;;;;;;5.53;5.13;;;;;;;15.79;100.00;97637.97;4831934;29;20741;-61
2022/06/12 05:20:25;;;;;;;6.13;5.60;;;;;;;15.97;100.00;97633.84;4810762;29;20222;-60
2022/06/12 05:22:54;;;;;;;6.13;5.50;;;;;;;16.06;100.00;97635.28;4846146;29;20592;-58
2022/06/12 05:25:23;;;;;;;5.87;5.47;;;;;;;16.22;100.00;97628.66;4853788;29;20854;-61
2022/06/12 05:27:52;;;;;;;5.57;5.27;;;;;;;16.50;100.00;97627.56;4850157;29;20923;-61
2022/06/12 05:30:23;;;;;;;6.03;5.63;;;;;;;16.43;100.00;97624.09;4852904;29;20719;-63
2022/06/12 05:32:53;;;;;;;6.43;5.83;;;;;;;16.43;100.00;97624.91;4829843;29;20241;-61
2022/06/12 05:35:22;;;;;;;6.27;5.67;;;;;;;16.74;100.00;97626.03;4814754;29;20381;-62
2022/06/12 05:37:52;;;;;;;7.40;5.93;;;;;;;16.88;100.00;97621.44;4846029;29;20552;-61
2022/06/12 05:40:24;;;;;;;6.10;5.63;;;;;;;16.57;100.00;97627.53;4852865;29;20250;-61
2022/06/12 05:42:52;;;;;;;5.70;5.37;;;;;;;16.69;100.00;97625.84;4849357;29;20386;-62
2022/06/12 05:45:23;;;;;;;6.00;5.50;;;;;;;17.08;100.00;97620.53;4851454;29;20221;-60
2022/06/12 05:47:54;;;;;;;9.10;6.40;;;;;;;16.87;100.00;97621.66;4830360;29;20807;-62
2022/06/12 05:50:24;;;;;;;6.77;6.00;;;;;;;16.91;100.00;97617.53;4852025;29;20245;-61
2022/06/12 05:52:52;;;;;;;8.03;6.43;;;;;;;17.24;100.00;97621.88;4808162;29;20923;-61
2022/06/12 05:55:22;;;;;;;7.03;6.00;;;;;;;17.58;100.00;97627.00;4856632;29;20741;-63
2022/06/12 05:57:50;;;;;;;6.80;6.23;;;;;;;17.67;100.00;97617.63;4848845;29;20840;-60
2022/06/12 06:00:23;;;;;;;6.43;5.93;;;;;;;17.84;100.00;97617.09;4854976;29;20300;-62
2022/06/12 06:02:51;;;;;;;7.73;5.90;;;;;;;18.06;100.00;97618.34;4829981;29;20309;-62
2022/06/12 06:05:20;;;;;;;7.10;6.40;;;;;;;18.04;100.00;97614.25;4853997;29;20312;-61
2022/06/12 06:07:48;;;;;;;6.63;6.03;;;;;;;18.06;100.00;97620.22;4816268;29;20526;-62
2022/06/12 06:10:20;;;;;;;7.67;6.03;;;;;;;18.14;100.00;97609.19;4860760;29;20245;-59
2022/06/12 06:12:50;;;;;;;6.53;6.03;;;;;;;18.33;100.00;97610.03;4854986;29;20736;-62
2022/06/12 06:15:19;;;;;;;10.43;8.40;;;;;;;18.47;100.00;97609.84;4855855;29;20241;-59
2022/06/12 06:17:47;;;;;;;5.53;5.13;;;;;;;18.64;100.00;97610.91;4858665;29;20892;-60
2022/06/12 06:20:18;;;;;;;6.40;5.67;;;;;;;18.88;100.00;97618.25;4825945;29;20206;-59
2022/06/12 06:22:46;;;;;;;6.83;6.33;;;;;;;18.91;100.00;97620.47;4815242;29;20237;-60
2022/06/12 06:25:15;;;;;;;6.33;5.90;;;;;;;19.04;100.00;97617.63;4855234;29;20238;-60
2022/06/12 06:27:43;;;;;;;6.30;5.80;;;;;;;18.90;100.00;97622.31;4845725;29;20491;-63
2022/06/12 06:30:14;;;;;;;5.33;5.03;;;;;;;19.17;100.00;97615.81;4853257;29;20531;-61
2022/06/12 06:32:43;;;;;;;5.23;4.93;;;;;;;19.32;100.00;97626.94;4855023;29;20646;-60
2022/06/12 06:35:12;;;;;;;6.53;5.90;;;;;;;19.29;100.00;97626.56;4833208;29;20539;-59
2022/06/12 06:37:41;;;;;;;5.87;5.37;;;;;;;19.62;100.00;97620.69;4813909;29;21413;-61
2022/06/12 06:40:13;;;;;;;6.33;5.57;;;;;;;19.58;100.00;97622.22;4857569;29;20340;-60
2022/06/12 06:42:41;;;;;;;5.90;5.40;;;;;;;19.73;100.00;97620.94;4854175;29;20324;-62
2022/06/12 06:47:58;;;;;;;5.03;4.70;;;;;;;19.94;100.00;97620.41;4832180;29;20237;-61
2022/06/12 06:50:27;;;;;;;5.93;5.43;;;;;;;19.99;100.00;97610.81;4831493;29;20224;-59
2022/06/12 06:52:55;;;;;;;5.27;4.87;;;;;;;20.18;100.00;97615.00;4813489;29;20382;-59
2022/06/12 06:55:23;;;;;;;4.63;4.43;;;;;;;20.24;100.00;97614.03;4855868;29;20663;-59
2022/06/12 06:57:52;;;;;;;5.07;4.60;;;;;;;20.29;100.00;97610.66;4859891;29;20714;-59
2022/06/12 07:00:26;;;;;;;5.10;4.60;;;;;;;20.42;100.00;97611.44;4853645;29;20241;-59
2022/06/12 07:02:54;;;;;;;4.67;4.37;;;;;;;20.53;100.00;97616.81;4859020;29;20240;-61
2022/06/12 07:05:23;;;;;;;8.07;6.00;;;;;;;20.57;100.00;97611.78;4830839;29;20827;-59
2022/06/12 07:07:51;;;;;;;5.80;5.20;;;;;;;20.79;100.00;97619.22;4837830;29;21092;-60
2022/06/12 07:10:25;;;;;;;4.50;4.20;;;;;;;20.78;100.00;97613.00;4800374;29;20224;-59
2022/06/12 07:12:54;;;;;;;4.57;4.27;;;;;;;20.68;100.00;97613.59;4829004;29;20233;-59
2022/06/12 07:15:24;;;;;;;3.90;3.70;;;;;;;20.70;100.00;97610.69;4853997;29;20301;-61
2022/06/12 07:17:54;;;;;;;4.53;4.07;;;;;;;21.10;100.00;97612.53;4836089;29;20433;-60
2022/06/12 07:20:25;;;;;;;6.70;4.83;;;;;;;21.22;100.00;97614.34;4834482;29;20305;-60
2022/06/12 07:22:53;;;;;;;5.10;4.30;;;;;;;21.40;100.00;97614.16;4842181;29;20607;-60
2022/06/12 07:25:21;;;;;;;4.40;4.10;;;;;;;21.64;100.00;97605.13;4816441;29;20221;-61
2022/06/12 07:27:49;;;;;;;4.20;3.90;;;;;;;21.50;100.00;97613.47;4853382;29;20393;-59
2022/06/12 07:30:20;;;;;;;4.43;4.13;;;;;;;21.62;100.00;97602.63;4856994;29;20719;-59
2022/06/12 07:32:50;;;;;;;3.90;3.70;;;;;;;21.89;100.00;97598.47;4830411;29;22169;-59
2022/06/12 07:35:19;;;;;;;4.63;4.20;;;;;;;21.98;100.00;97610.47;4829952;29;20245;-60
2022/06/12 07:37:48;;;;;;;4.97;4.57;;;;;;;22.19;100.00;97606.19;4836203;29;20483;-58
2022/06/12 07:40:22;;;;;;;4.00;3.80;;;;;;;22.12;100.00;97609.06;4808366;29;20226;-61
2022/06/12 07:42:50;;;;;;;4.57;4.10;;;;;;;22.21;100.00;97604.06;4854829;29;20706;-58
2022/06/12 07:45:19;;;;;;;5.07;4.70;;;;;;;21.98;100.00;97608.59;4851973;29;20221;-59
2022/06/12 07:47:48;;;;;;;4.37;4.03;;;;;;;22.08;100.00;97604.38;4855774;29;20249;-59
2022/06/12 07:50:18;;;;;;;4.70;4.40;;;;;;;22.26;100.00;97604.13;4857791;29;20629;-61
2022/06/12 07:52:47;;;;;;;4.10;3.83;;;;;;;22.29;100.00;97599.28;4828045;29;20241;-60
2022/06/12 07:55:18;;;;;;;3.80;3.60;;;;;;;22.45;100.00;97603.81;4797838;29;20209;-61
2022/06/12 07:57:48;;;;;;;3.73;3.43;;;;;;;22.93;100.00;97600.63;4830731;29;20710;-59
2022/06/12 08:00:18;;;;;;;4.10;3.80;;;;;;;22.68;93.17;97596.56;4856747;29;20241;-60
2022/06/12 08:02:48;;;;;;;5.33;4.80;;;;;;;22.65;100.00;97592.47;4816199;29;20325;-59
2022/06/12 08:05:19;;;;;;;3.97;3.77;;;;;;;22.87;100.00;97598.91;4849890;29;20812;-62
2022/06/12 08:07:48;;;;;;;5.10;4.63;;;;;;;22.84;100.00;97597.53;4829281;29;20785;-59
2022/06/12 08:10:17;;;;;;;4.43;4.10;;;;;;;23.03;98.85;97594.47;4838517;29;20237;-60
2022/06/12 08:12:47;;;;;;;3.87;3.67;;;;;;;23.23;100.00;97591.97;4788925;29;20601;-60
2022/06/12 08:15:19;;;;;;;3.77;3.53;;;;;;;23.33;97.27;97591.28;4857049;29;20233;-60
2022/06/12 08:17:49;;;;;;;3.97;3.67;;;;;;;23.49;95.23;97594.13;4838883;29;20404;-59
2022/06/12 08:20:26;;;;;;;3.60;3.40;;;;;;;23.49;93.54;97599.53;4853577;29;20229;-62
2022/06/12 08:22:57;;;;;;;4.57;4.27;;;;;;;23.58;95.99;97595.25;4832484;29;20259;-62
2022/06/12 08:25:28;;;;;;;4.03;3.77;;;;;;;23.69;95.13;97590.75;4837925;29;20220;-61
2022/06/12 08:27:57;;;;;;;3.97;3.67;;;;;;;23.64;95.51;97593.44;4802855;29;20213;-61
2022/06/12 08:30:26;;;;;;;4.27;4.07;;;;;;;23.72;97.22;97584.81;4848552;29;20233;-62
2022/06/12 08:32:56;;;;;;;4.30;4.10;;;;;;;23.72;96.46;97595.66;4822861;29;23279;-62
2022/06/12 08:35:30;;;;;;;4.50;4.10;;;;;;;23.98;100.00;97585.78;4846661;29;20459;-60
2022/06/12 08:37:59;;;;;;;4.77;3.60;;;;;;;24.07;100.00;97582.66;4829866;29;20402;-58
2022/06/12 08:40:32;;;;;;;4.53;4.13;;;;;;;24.22;100.00;97582.72;4852237;29;20706;-60
2022/06/12 08:43:08;;;;;;;3.63;3.33;;;;;;;24.33;89.99;97583.59;4795086;29;21614;-62
2022/06/12 08:45:40;;;;;;;4.33;3.80;;;;;;;24.35;92.40;97583.31;4850073;29;20225;-58
2022/06/12 08:48:15;;;;;;;4.40;4.00;;;;;;;24.36;96.19;97587.66;4836634;29;20534;-58
2022/06/12 08:50:50;;;;;;;3.80;3.60;;;;;;;24.48;94.28;97584.72;4840568;29;20279;-60
2022/06/12 08:53:23;;;;;;;3.87;3.67;;;;;;;24.45;94.00;97586.09;4829036;29;20244;-60
2022/06/12 08:55:57;;;;;;;4.27;4.07;;;;;;;24.69;93.19;97581.00;4842039;29;20646;-63
2022/06/12 08:58:28;;;;;;;4.83;3.90;;;;;;;24.79;94.03;97577.53;4788759;29;20217;-62
2022/06/12 09:00:57;;;;;;;3.97;3.77;;;;;;;24.75;93.26;97565.59;4856392;29;20299;-62
2022/06/12 09:03:29;;;;;;;4.63;3.90;;;;;;;24.85;92.90;97565.66;4802985;29;20673;-61
2022/06/12 09:06:07;;;;;;;5.90;3.60;;;;;;;25.09;88.76;97567.03;4853473;29;20220;-61
2022/06/12 09:08:47;;;;;;;4.17;3.97;;;;;;;25.19;91.73;97558.91;4831893;29;20516;-59
2022/06/12 09:11:20;;;;;;;3.93;3.50;;;;;;;25.00;87.69;97555.91;4847402;29;20916;-64
2022/06/12 09:13:56;;;;;;;3.93;3.73;;;;;;;24.68;89.50;97556.88;4788156;29;20376;-63
2022/06/12 09:16:30;;;;;;;3.87;3.57;;;;;;;24.75;83.68;97554.75;4851541;29;20273;-58
2022/06/12 09:19:09;;;;;;;3.60;3.40;;;;;;;24.90;84.30;97548.56;4836514;29;21116;-64
2022/06/12 09:21:46;;;;;;;3.23;3.10;;;;;;;25.21;79.52;97547.81;4847108;29;20218;-58
2022/06/12 09:24:21;;;;;;;3.50;3.30;;;;;;;25.52;83.80;97536.94;4847828;29;20269;-61
2022/06/12 09:26:56;;;;;;;5.17;3.90;;;;;;;25.79;81.32;97535.84;4833292;29;20725;-62
2022/06/12 09:29:35;;;;;;;4.13;3.80;;;;;;;26.30;72.01;97532.19;4828456;29;20684;-60
2022/06/12 09:32:09;;;;;;;3.43;3.23;;;;;;;26.54;68.37;97529.63;4847783;29;20225;-62
2022/06/12 09:34:42;;;;;;;3.17;3.00;;;;;;;26.76;62.38;97528.41;4832225;29;20321;-62
2022/06/12 09:40:17;;;;;;;3.27;3.10;;;;;;;26.95;59.55;97522.31;4848762;29;21006;-63
2022/06/12 09:42:56;;;;;;;3.37;3.13;;;;;;;27.04;63.93;97530.69;4828456;29;20709;-63
2022/06/12 09:45:29;;;;;;;3.43;3.23;;;;;;;26.92;63.74;97517.47;4837830;29;20325;-62
2022/06/12 09:48:05;;;;;;;3.57;3.30;;;;;;;27.16;64.09;97523.81;4830599;29;20423;-62
2022/06/12 09:50:41;;;;;;;3.33;3.13;;;;;;;27.00;64.18;97516.84;4849660;29;20278;-62
2022/06/12 09:53:31;;;;;;;3.67;3.40;;;;;;;27.68;60.54;97515.19;4845668;29;20767;-63
2022/06/12 09:56:02;;;;;;;3.33;3.13;;;;;;;27.34;58.07;97512.50;4845336;29;20218;-62
2022/06/12 09:58:35;;;;;;;4.60;3.30;;;;;;;27.12;62.20;97513.78;4844424;29;20220;-62
2022/06/12 10:01:05;;;;;;;3.23;3.13;;;;;;;26.79;60.89;97516.97;4849852;29;20312;-63
2022/06/12 10:03:39;;;;;;;3.37;3.17;;;;;;;26.86;57.23;97520.22;4809810;29;20684;-63
2022/06/12 10:06:14;;;;;;;3.07;2.93;;;;;;;27.39;59.68;97507.81;4856234;29;20685;-63
2022/06/12 10:08:49;;;;;;;3.40;3.10;;;;;;;27.77;58.31;97515.38;4847668;29;20838;-62
2022/06/12 10:11:21;;;;;;;3.83;3.53;;;;;;;27.06;58.84;97517.63;4853868;29;20599;-62
2022/06/12 10:13:53;;;;;;;3.67;3.47;;;;;;;27.03;62.07;97516.28;4852168;29;20338;-62
2022/06/12 10:16:26;;;;;;;3.67;3.37;;;;;;;26.75;63.39;97510.47;4850831;29;20252;-62
2022/06/12 10:19:17;;;;;;;3.43;3.23;;;;;;;26.45;67.29;97501.41;4811634;29;20722;-64
2022/06/12 10:21:50;;;;;;;2.93;2.83;;;;;;;26.15;52.95;97500.44;4854438;29;20714;-61
2022/06/12 10:24:20;;;;;;;3.47;3.27;;;;;;;26.44;65.53;97491.66;4851018;29;20222;-61
2022/06/12 10:26:56;;;;;;;3.57;3.37;;;;;;;26.34;60.69;97495.22;4850870;29;20404;-62
2022/06/12 10:29:25;;;;;;;3.10;3.00;;;;;;;26.29;53.05;97498.75;4852930;29;20885;-61
2022/06/12 10:31:58;;;;;;;2.63;2.43;;;;;;;26.36;46.50;97486.81;4847473;29;20320;-62
2022/06/12 10:34:29;;;;;;;2.87;2.70;;;;;;;26.00;47.25;97493.16;4807966;29;20360;-60
2022/06/12 10:37:08;;;;;;;3.07;2.83;;;;;;;25.96;54.13;97487.50;4855387;29;20313;-63
2022/06/12 10:39:40;;;;;;;2.60;2.50;;;;;;;25.69;52.43;97483.22;4844429;29;20707;-61
2022/06/12 10:42:29;;;;;;;3.20;2.60;;;;;;;26.06;50.43;97478.47;4856667;29;20250;-63
2022/06/12 10:44:59;;;;;;;2.77;2.67;;;;;;;26.11;45.45;97483.06;4854588;29;20460;-64
2022/06/12 10:47:30;;;;;;;2.20;2.10;;;;;;;25.81;43.74;97471.25;4838468;29;20257;-61
2022/06/12 10:50:20;;;;;;;2.73;2.63;;;;;;;25.89;43.25;97470.66;4858365;29;20222;-63
2022/06/12 10:52:58;;;;;;;1.87;1.77;;;;;;;25.61;40.72;97475.66;4848058;29;20648;-62
2022/06/12 10:55:50;;;;;;;2.97;2.60;;;;;;;25.87;40.30;97472.84;4852257;29;20599;-62
2022/06/12 10:58:44;;;;;;;2.10;2.00;;;;;;;26.05;39.84;97462.47;4854066;29;20218;-65
2022/06/12 11:01:18;;;;;;;1.97;1.77;;;;;;;25.96;39.35;97460.34;4852907;29;20341;-64
2022/06/12 11:03:56;;;;;;;2.23;2.03;;;;;;;25.89;41.96;97454.38;4806978;29;20472;-63
2022/06/12 11:06:31;;;;;;;2.60;2.50;;;;;;;26.24;42.95;97460.78;4853190;29;20252;-61
2022/06/12 11:09:19;;;;;;;2.60;2.40;;;;;;;26.36;38.30;97441.44;4849180;29;20221;-64
2022/06/12 11:12:05;;;;;;;2.90;1.97;;;;;;;26.12;37.74;97458.34;4847367;29;20233;-63
2022/06/12 11:14:47;;;;;;;2.37;2.27;;;;;;;25.97;39.35;97453.00;4852329;29;20270;-61
2022/06/12 11:17:36;;;;;;;1.90;1.80;;;;;;;26.14;38.86;97445.34;4854861;29;20294;-64
2022/06/12 11:20:20;;;;;;;1.77;1.77;;;;;;;26.07;40.62;97438.56;4814176;29;20308;-64
2022/06/12 11:22:54;;;;;;;2.10;2.00;;;;;;;26.36;40.21;97432.50;4854452;29;20383;-65
2022/06/12 11:25:33;;;;;;;2.13;1.93;;;;;;;26.92;37.90;97435.91;4852996;29;20658;-62
2022/06/12 11:28:12;;;;;;;2.43;2.03;;;;;;;26.83;37.14;97433.78;4850476;29;20309;-64
2022/06/12 11:30:47;;;;;;;2.40;1.70;;;;;;;27.42;39.96;97428.34;4853078;29;20498;-63
2022/06/12 11:33:49;;;;;;;2.00;1.90;;;;;;;27.85;39.70;97426.84;4849686;29;20337;-63
2022/06/12 11:36:22;;;;;;;3.67;2.40;;;;;;;28.11;36.77;97429.22;4841852;29;20696;-64
2022/06/12 11:39:04;;;;;;;2.03;1.60;;;;;;;28.27;35.04;97424.41;4849987;29;20415;-64
2022/06/12 11:41:43;;;;;;;2.83;2.10;;;;;;;28.13;33.14;97424.28;4847635;29;20224;-62
2022/06/12 11:44:24;;;;;;;1.93;1.70;;;;;;;28.25;33.74;97411.09;4855012;29;20335;-65
2022/06/12 11:46:59;;;;;;;2.13;1.93;;;;;;;27.80;33.63;97413.28;4848232;29;20500;-63
2022/06/12 11:49:37;;;;;;;2.13;2.03;;;;;;;27.45;34.18;97405.22;4837295;29;20317;-61
2022/06/12 11:52:16;;;;;;;2.00;1.90;;;;;;;27.92;35.74;97413.69;4835801;29;20264;-61
2022/06/12 11:54:58;;;;;;;2.13;1.97;;;;;;;28.52;36.84;97404.13;4853228;29;20305;-64
2022/06/12 11:57:30;;;;;;;3.07;1.93;;;;;;;28.04;34.19;97405.09;4837520;29;20371;-66
2022/06/12 12:00:06;;;;;;;2.03;1.93;;;;;;;27.97;31.03;97400.00;4841157;29;20229;-64
2022/06/12 12:03:00;;;;;;;1.23;1.23;;;;;;;27.62;33.02;97393.06;4855818;29;20235;-67
2022/06/12 12:05:45;;;;;;;2.40;2.20;;;;;;;27.44;37.34;97395.44;4811200;29;21397;-64
2022/06/12 12:08:26;;;;;;;2.17;2.07;;;;;;;27.38;34.72;97389.22;4850025;29;20218;-61